createdAt,value
2019-02-28T00:00:40.681Z,10.83
2019-02-28T00:03:10.146Z,11.50
2019-02-28T00:05:39.088Z,11.13
2019-02-28T00:08:07.727Z,11.63
2019-02-28T00:10:36.665Z,10.67
2019-02-28T00:13:05.530Z,11.43
2019-02-28T00:15:34.154Z,11.50
2019-02-28T00:18:03.669Z,10.70
2019-02-28T00:20:32.733Z,10.30
2019-02-28T00:23:01.311Z,10.50
2019-02-28T00:25:29.890Z,10.77
2019-02-28T00:27:58.465Z,10.67
2019-02-28T00:30:27.106Z,9.67
2019-02-28T00:32:56.405Z,10.57
2019-02-28T00:35:26.147Z,10.43
2019-02-28T00:37:56.617Z,10.37
2019-02-28T00:40:24.957Z,9.70
2019-02-28T00:42:53.606Z,10.53
2019-02-28T00:45:22.173Z,10.53
2019-02-28T00:47:50.746Z,9.37
2019-02-28T00:50:19.397Z,10.17
2019-02-28T00:52:47.942Z,9.47
2019-02-28T00:55:16.791Z,12.68
2019-02-28T00:57:45.375Z,11.13
2019-02-28T01:00:16.985Z,9.93
2019-02-28T01:02:45.566Z,10.10
2019-02-28T01:05:14.491Z,9.70
2019-02-28T01:07:43.102Z,9.67
2019-02-28T01:10:13.041Z,9.87
2019-02-28T01:12:41.762Z,10.50
2019-02-28T01:15:13.455Z,10.33
2019-02-28T01:17:42.122Z,8.93
2019-02-28T01:20:14.913Z,9.43
2019-02-28T01:22:42.524Z,9.37
2019-02-28T01:25:14.265Z,9.90
2019-02-28T01:27:42.895Z,9.67
2019-02-28T01:30:16.491Z,9.27
2019-02-28T01:32:50.079Z,9.37
2019-02-28T01:35:15.678Z,10.23
2019-02-28T01:37:44.365Z,9.20
2019-02-28T01:40:14.755Z,9.40
2019-02-28T01:42:43.770Z,9.43
2019-02-28T01:45:13.996Z,9.85
2019-02-28T01:47:42.541Z,9.00
2019-02-28T01:50:12.741Z,8.70
2019-02-28T01:52:45.851Z,8.50
2019-02-28T01:55:12.679Z,9.03
2019-02-28T01:57:44.158Z,9.23
2019-02-28T02:00:17.107Z,8.43
2019-02-28T02:02:46.029Z,8.60
2019-02-28T02:05:17.022Z,8.13
2019-02-28T02:07:45.611Z,8.03
2019-02-28T02:10:21.294Z,8.13
2019-02-28T02:12:48.651Z,8.60
2019-02-28T04:28:54.704Z,7.07
2019-02-28T04:31:23.551Z,7.07
2019-02-28T04:33:52.114Z,6.70
2019-02-28T04:36:20.778Z,6.83
2019-02-28T04:38:51.700Z,6.97
2019-02-28T04:41:19.546Z,7.57
2019-02-28T04:43:48.058Z,8.03
2019-02-28T04:46:16.623Z,7.00
2019-02-28T04:48:45.749Z,7.77
2019-02-28T04:51:15.414Z,8.13
2019-02-28T04:53:43.957Z,7.10
2019-02-28T04:56:12.475Z,7.90
2019-02-28T04:58:41.465Z,7.80
2019-02-28T05:01:12.349Z,6.90
2019-02-28T05:03:40.249Z,7.70
2019-02-28T05:06:08.791Z,7.20
2019-02-28T05:08:38.930Z,6.70
2019-02-28T05:11:07.598Z,8.07
2019-02-28T05:13:36.154Z,6.70
2019-02-28T05:16:04.836Z,7.43
2019-02-28T05:18:33.413Z,7.87
2019-02-28T05:21:01.954Z,7.70
2019-02-28T05:23:35.791Z,7.47
2019-02-28T05:26:00.795Z,7.73
2019-02-28T05:28:29.382Z,7.50
2019-02-28T05:30:57.934Z,7.93
2019-02-28T05:33:26.453Z,7.30
2019-02-28T05:35:57.258Z,7.43
2019-02-28T05:38:25.584Z,7.63
2019-02-28T05:40:55.539Z,6.70
2019-02-28T05:43:24.144Z,7.00
2019-02-28T05:45:53.101Z,7.50
2019-02-28T05:48:21.675Z,7.37
2019-02-28T05:50:53.344Z,7.17
2019-02-28T05:53:20.463Z,6.77
2019-02-28T05:55:49.028Z,7.30
2019-02-28T05:58:18.331Z,6.47
2019-02-28T06:00:47.172Z,7.55
2019-02-28T06:03:15.731Z,7.00
2019-02-28T06:05:46.357Z,6.73
2019-02-28T06:08:14.538Z,7.50
2019-02-28T06:10:43.106Z,7.27
2019-02-28T06:13:11.671Z,6.63
2019-02-28T06:15:40.239Z,7.37
2019-02-28T06:18:08.804Z,7.00
2019-02-28T06:20:37.403Z,6.83
2019-02-28T06:23:06.321Z,7.40
2019-02-28T06:25:36.469Z,7.63
2019-02-28T06:28:05.059Z,6.83
2019-02-28T06:30:33.639Z,6.40
2019-02-28T06:33:02.222Z,7.97
2019-02-28T06:35:30.825Z,7.07
2019-02-28T06:37:59.388Z,6.70
2019-02-28T06:40:32.644Z,6.50
2019-02-28T06:42:58.178Z,6.50
2019-02-28T06:45:26.750Z,7.47
2019-02-28T06:47:55.334Z,6.67
2019-02-28T06:50:23.878Z,6.37
2019-02-28T06:52:52.486Z,6.90
2019-02-28T06:55:25.222Z,7.17
2019-02-28T06:57:53.963Z,9.03
2019-02-28T07:00:23.090Z,11.07
2019-02-28T07:02:51.814Z,8.33
2019-02-28T07:05:24.837Z,10.83
2019-02-28T07:07:51.024Z,10.13
2019-02-28T07:10:19.780Z,10.57
2019-02-28T07:12:48.498Z,11.43
2019-02-28T07:15:17.087Z,12.70
2019-02-28T07:17:46.272Z,13.40
2019-02-28T07:20:18.671Z,15.97
2019-02-28T07:22:47.564Z,31.33
2019-02-28T07:25:16.147Z,16.33
2019-02-28T07:27:44.735Z,14.63
2019-02-28T07:30:19.178Z,16.20
2019-02-28T07:32:48.216Z,19.63
2019-02-28T07:35:16.798Z,15.40
2019-02-28T07:37:45.310Z,13.60
2019-02-28T07:40:17.285Z,14.57
2019-02-28T07:42:46.405Z,15.70
2019-02-28T07:45:15.935Z,15.47
2019-02-28T07:47:44.803Z,14.73
2019-02-28T07:50:15.008Z,16.00
2019-02-28T07:52:43.742Z,14.80
2019-02-28T07:55:17.371Z,15.23
2019-02-28T07:57:51.284Z,15.27
2019-02-28T08:00:23.903Z,15.50
2019-02-28T08:02:52.719Z,16.03
2019-02-28T08:05:21.470Z,16.97
2019-02-28T08:07:52.332Z,16.13
2019-02-28T08:10:25.396Z,17.90
2019-02-28T08:12:53.996Z,16.50
2019-02-28T08:15:23.919Z,16.50
2019-02-28T08:17:52.550Z,17.20
2019-02-28T08:20:21.494Z,17.87
2019-02-28T08:22:50.143Z,17.03
2019-02-28T08:25:18.799Z,16.63
2019-02-28T08:27:47.439Z,17.83
2019-02-28T08:30:29.946Z,17.67
2019-02-28T08:32:58.507Z,16.63
2019-02-28T08:35:27.063Z,17.00
2019-02-28T08:37:57.223Z,18.00
2019-02-28T08:40:27.245Z,14.90
2019-02-28T08:42:55.902Z,17.03
2019-02-28T08:45:24.733Z,17.20
2019-02-28T08:47:56.667Z,17.40
2019-02-28T08:50:24.895Z,21.00
2019-02-28T08:53:01.582Z,20.60
2019-02-28T08:55:30.288Z,16.73
2019-02-28T08:58:05.228Z,18.13
2019-02-28T09:00:32.750Z,19.83
2019-02-28T09:03:00.889Z,17.50
2019-02-28T09:05:30.249Z,17.83
2019-02-28T09:07:59.449Z,18.50
2019-02-28T09:10:28.142Z,18.23
2019-02-28T09:12:56.808Z,19.77
2019-02-28T09:15:29.994Z,20.53
2019-02-28T09:17:59.453Z,17.13
2019-02-28T09:20:26.170Z,18.63
2019-02-28T09:22:54.809Z,18.10
2019-02-28T09:25:26.853Z,18.27
2019-02-28T09:27:55.257Z,18.13
2019-02-28T09:30:30.585Z,19.13
2019-02-28T09:32:59.492Z,17.40
2019-02-28T09:35:28.043Z,21.57
2019-02-28T09:37:56.691Z,19.57
2019-02-28T09:40:25.875Z,18.97
2019-02-28T09:42:55.500Z,19.83
2019-02-28T09:45:26.426Z,19.80
2019-02-28T09:47:55.093Z,20.27
2019-02-28T09:50:24.026Z,20.57
2019-02-28T09:52:52.601Z,19.13
2019-02-28T09:55:21.242Z,21.80
2019-02-28T09:57:53.820Z,18.37
2019-02-28T10:00:27.542Z,18.03
2019-02-28T10:02:56.368Z,20.40
2019-02-28T10:05:25.089Z,19.13
2019-02-28T10:07:54.124Z,19.73
2019-02-28T10:10:28.663Z,19.13
2019-02-28T10:12:57.654Z,18.43
2019-02-28T10:15:26.767Z,18.50
2019-02-28T10:17:55.398Z,19.23
2019-02-28T10:20:32.169Z,18.27
2019-02-28T10:23:00.795Z,19.20
2019-02-28T10:25:29.466Z,18.67
2019-02-28T10:28:01.610Z,17.10
2019-02-28T10:30:32.305Z,16.53
2019-02-28T10:32:59.730Z,15.60
2019-02-28T10:35:28.298Z,15.30
2019-02-28T10:37:58.466Z,15.40
2019-02-28T10:40:28.254Z,14.17
2019-02-28T10:42:57.170Z,15.63
2019-02-28T10:45:26.566Z,15.77
2019-02-28T10:47:55.347Z,15.00
2019-02-28T10:50:33.152Z,16.00
2019-02-28T10:53:05.571Z,16.77
2019-02-28T10:55:32.270Z,15.57
2019-02-28T10:58:01.243Z,16.63
2019-02-28T11:00:36.006Z,16.33
2019-02-28T11:03:04.622Z,17.37
2019-02-28T11:05:34.941Z,18.83
2019-02-28T11:08:04.587Z,17.90
2019-02-28T11:10:36.647Z,19.50
2019-02-28T11:13:07.575Z,19.70
2019-02-28T11:15:36.275Z,19.87
2019-02-28T11:18:09.736Z,20.77
2019-02-28T11:20:36.254Z,20.13
2019-02-28T11:23:05.113Z,19.37
2019-02-28T11:25:35.480Z,20.60
2019-02-28T11:28:04.677Z,22.67
2019-02-28T11:30:33.820Z,22.37
2019-02-28T11:33:04.542Z,22.03
2019-02-28T11:35:33.317Z,27.48
2019-02-28T11:38:02.035Z,23.77
2019-02-28T11:40:30.979Z,22.33
2019-02-28T11:43:02.889Z,22.73
2019-02-28T11:45:37.883Z,22.93
2019-02-28T11:48:08.807Z,22.23
2019-02-28T11:50:41.330Z,23.03
2019-02-28T11:53:07.843Z,22.73
2019-02-28T11:55:36.492Z,21.80
2019-02-28T11:58:05.579Z,22.93
2019-02-28T12:00:39.181Z,22.67
2019-02-28T12:03:07.747Z,23.43
2019-02-28T12:05:36.403Z,24.17
2019-02-28T12:08:09.241Z,22.97
2019-02-28T12:10:35.453Z,23.13
2019-02-28T12:13:04.098Z,23.43
2019-02-28T12:15:39.129Z,23.77
2019-02-28T12:18:07.795Z,22.87
2019-02-28T12:20:36.610Z,24.43
2019-02-28T12:23:05.446Z,21.87
2019-02-28T12:25:34.753Z,24.77
2019-02-28T12:28:06.337Z,21.90
2019-02-28T12:30:35.015Z,23.33
2019-02-28T12:33:03.608Z,24.93
2019-02-28T12:35:36.288Z,21.50
2019-02-28T12:38:02.993Z,23.33
2019-02-28T12:40:37.589Z,22.87
2019-02-28T12:43:09.589Z,22.87
2019-02-28T12:45:41.354Z,22.67
2019-02-28T12:48:10.089Z,23.90
2019-02-28T12:50:38.902Z,24.77
2019-02-28T12:53:07.481Z,23.27
2019-02-28T12:55:39.065Z,23.67
2019-02-28T12:58:06.267Z,21.60
2019-02-28T13:00:39.387Z,23.53
2019-02-28T13:03:09.159Z,22.37
2019-02-28T13:05:38.153Z,22.37
2019-02-28T13:08:07.300Z,21.87
2019-02-28T13:10:36.283Z,20.13
2019-02-28T13:13:06.973Z,21.13
2019-02-28T13:15:35.724Z,21.43
2019-02-28T13:18:09.173Z,18.50
2019-02-28T13:20:37.096Z,22.27
2019-02-28T13:23:06.004Z,21.93
2019-02-28T13:25:34.598Z,20.10
2019-02-28T13:28:03.418Z,20.07
2019-02-28T13:30:32.405Z,20.37
2019-02-28T13:33:01.006Z,19.00
2019-02-28T13:35:32.301Z,18.40
2019-02-28T13:38:00.953Z,20.10
2019-02-28T13:40:29.617Z,21.83
2019-02-28T13:42:58.263Z,24.13
2019-02-28T13:45:27.659Z,25.87
2019-02-28T13:47:56.249Z,27.83
2019-02-28T13:50:29.289Z,26.63
2019-02-28T13:53:02.551Z,25.13
2019-02-28T13:55:28.162Z,23.90
2019-02-28T13:57:56.746Z,24.37
2019-02-28T14:00:33.430Z,24.00
2019-02-28T14:03:09.453Z,25.17
2019-02-28T14:05:40.847Z,25.97
2019-02-28T14:08:11.199Z,26.10
2019-02-28T14:10:38.996Z,27.77
2019-02-28T14:13:08.066Z,27.07
2019-02-28T14:15:47.895Z,26.20
2019-02-28T14:18:17.459Z,27.67
2019-02-28T14:20:46.208Z,26.53
2019-02-28T14:23:20.223Z,27.27
2019-02-28T14:25:45.096Z,26.07
2019-02-28T14:28:13.674Z,26.43
2019-02-28T14:30:42.832Z,24.13
2019-02-28T14:33:11.478Z,26.33
2019-02-28T14:35:40.119Z,24.80
2019-02-28T14:38:09.128Z,23.57
2019-02-28T14:40:37.795Z,22.83
2019-02-28T14:43:06.414Z,21.37
2019-02-28T14:45:43.073Z,23.30
2019-02-28T14:48:11.327Z,24.77
2019-02-28T14:50:39.887Z,21.33
2019-02-28T14:53:13.134Z,23.47
2019-02-28T14:55:38.954Z,23.13
2019-02-28T14:58:07.547Z,22.07
2019-02-28T15:00:38.916Z,22.03
2019-02-28T15:03:06.743Z,22.50
2019-02-28T15:05:41.105Z,20.83
2019-02-28T15:08:11.992Z,22.00
2019-02-28T15:10:40.934Z,22.13
2019-02-28T15:13:09.669Z,23.47
2019-02-28T15:15:38.294Z,22.37
2019-02-28T15:18:06.968Z,22.23
2019-02-28T15:20:35.551Z,21.13
2019-02-28T15:23:04.330Z,22.40
2019-02-28T15:25:33.277Z,24.37
2019-02-28T15:28:01.926Z,24.23
2019-02-28T15:30:35.879Z,26.20
2019-02-28T15:33:05.003Z,23.73
2019-02-28T15:35:33.643Z,22.13
2019-02-28T15:38:05.891Z,23.80
2019-02-28T15:40:48.025Z,27.07
2019-02-28T15:43:18.258Z,26.20
2019-02-28T15:45:47.092Z,26.13
2019-02-28T15:48:15.688Z,25.63
2019-02-28T15:50:44.238Z,26.67
2019-02-28T15:53:15.058Z,24.67
2019-02-28T15:55:43.126Z,27.63
2019-02-28T15:58:12.131Z,27.17
2019-02-28T16:00:40.914Z,25.23
2019-02-28T16:03:09.501Z,25.50
2019-02-28T16:05:42.698Z,27.10
2019-02-28T16:08:10.383Z,25.13
2019-02-28T16:10:38.727Z,23.10
2019-02-28T16:13:07.722Z,21.97
2019-02-28T16:15:36.399Z,29.00
2019-02-28T16:18:05.367Z,22.07
2019-02-28T16:20:33.951Z,24.33
2019-02-28T16:23:02.610Z,24.97
2019-02-28T16:25:36.439Z,25.47
2019-02-28T16:28:09.534Z,25.23
2019-02-28T16:30:39.438Z,24.27
2019-02-28T16:33:08.137Z,22.87
2019-02-28T16:35:36.882Z,24.00
2019-02-28T16:38:06.342Z,22.50
2019-02-28T16:40:35.803Z,21.33
2019-02-28T16:43:04.541Z,21.67
2019-02-28T16:45:43.927Z,22.30
2019-02-28T16:48:12.487Z,21.83
2019-02-28T16:50:41.179Z,23.83
2019-02-28T16:53:14.760Z,21.93
2019-02-28T16:55:40.375Z,22.67
2019-02-28T16:58:08.968Z,20.93
2019-02-28T17:00:39.480Z,23.17
2019-02-28T17:03:08.311Z,21.40
2019-02-28T17:05:37.882Z,21.47
2019-02-28T17:08:06.960Z,21.77
2019-02-28T17:10:39.991Z,23.70
2019-02-28T17:13:09.036Z,21.70
2019-02-28T17:15:55.849Z,22.07
2019-02-28T17:18:31.826Z,21.13
2019-02-28T17:21:00.384Z,21.30
2019-02-28T17:23:29.160Z,21.03
2019-02-28T17:25:57.964Z,23.53
2019-02-28T17:28:37.555Z,22.27
2019-02-28T17:31:22.805Z,22.33
2019-02-28T17:33:51.721Z,23.60
2019-02-28T17:36:20.620Z,21.77
2019-02-28T17:38:49.320Z,21.47
2019-02-28T17:41:17.954Z,22.30
2019-02-28T17:44:06.277Z,26.50
2019-02-28T17:46:34.874Z,23.43
2019-02-28T17:49:26.161Z,23.40
2019-02-28T17:51:58.536Z,25.80
2019-02-28T17:54:32.939Z,23.87
2019-02-28T17:57:10.502Z,25.43
2019-02-28T18:00:12.903Z,23.97
2019-02-28T18:02:50.015Z,22.37
2019-02-28T18:05:33.718Z,25.03
2019-02-28T18:08:21.639Z,24.00
2019-02-28T18:11:09.969Z,24.37
2019-02-28T18:14:02.634Z,25.57
2019-02-28T18:16:47.200Z,26.00
2019-02-28T18:19:19.448Z,25.83
2019-02-28T18:21:55.229Z,25.33
2019-02-28T18:24:43.359Z,25.07
2019-02-28T18:27:37.514Z,25.47
2019-02-28T18:30:12.127Z,26.33
2019-02-28T18:32:41.052Z,24.87
2019-02-28T18:35:10.074Z,24.13
2019-02-28T18:37:38.660Z,25.93
2019-02-28T18:40:08.455Z,25.03
2019-02-28T18:42:37.029Z,22.80
2019-02-28T18:45:08.608Z,25.90
2019-02-28T18:47:39.831Z,23.90
2019-02-28T18:50:08.697Z,24.67
2019-02-28T18:52:37.254Z,24.03
2019-02-28T18:55:07.875Z,23.87
2019-02-28T18:57:36.811Z,24.40
2019-02-28T19:00:09.031Z,25.67
2019-02-28T19:02:37.605Z,24.93
2019-02-28T19:05:07.059Z,26.67
2019-02-28T19:07:36.282Z,25.30
2019-02-28T19:10:08.290Z,25.93
2019-02-28T19:12:37.000Z,24.93
2019-02-28T19:15:08.750Z,25.43
2019-02-28T19:17:37.387Z,24.37
2019-02-28T19:20:10.477Z,23.53
2019-02-28T19:22:39.083Z,26.63
2019-02-28T19:25:10.650Z,24.17
2019-02-28T19:27:39.241Z,24.90
2019-02-28T19:30:13.272Z,23.53
2019-02-28T19:32:42.164Z,24.80
2019-02-28T19:35:10.913Z,27.80
2019-02-28T19:37:39.552Z,26.13
2019-02-28T19:40:12.886Z,28.30
2019-02-28T19:42:41.567Z,27.30
2019-02-28T19:45:19.139Z,27.50
2019-02-28T19:47:47.746Z,26.20
2019-02-28T19:50:16.377Z,36.47
2019-02-28T19:52:44.931Z,29.20
2019-02-28T19:55:15.193Z,27.87
2019-02-28T19:57:44.075Z,28.57
2019-02-28T20:00:15.659Z,26.60
2019-02-28T20:02:44.527Z,27.60
2019-02-28T20:05:13.534Z,26.27
2019-02-28T20:07:42.110Z,29.05
2019-02-28T20:10:18.186Z,24.63
2019-02-28T20:12:46.880Z,24.20
2019-02-28T20:15:21.839Z,26.13
2019-02-28T20:17:50.760Z,24.33
2019-02-28T20:20:25.762Z,28.13
2019-02-28T20:22:54.418Z,28.57
2019-02-28T20:25:23.139Z,28.57
2019-02-28T20:27:51.807Z,30.97
2019-02-28T20:30:23.054Z,31.10
2019-02-28T20:32:51.789Z,29.37
2019-02-28T20:35:26.530Z,30.33
2019-02-28T20:37:51.063Z,29.17
2019-02-28T20:40:25.527Z,24.67
2019-02-28T20:42:54.198Z,29.20
2019-02-28T20:45:23.190Z,28.63
2019-02-28T20:47:52.097Z,26.30
2019-02-28T20:50:29.634Z,26.30
2019-02-28T20:52:58.296Z,26.63
2019-02-28T20:55:26.896Z,25.07
2019-02-28T20:57:55.452Z,26.93
2019-02-28T21:00:25.830Z,26.80
2019-02-28T21:02:54.486Z,28.53
2019-02-28T21:05:23.136Z,27.97
2019-02-28T21:07:51.990Z,28.70
2019-02-28T21:10:20.557Z,25.73
2019-02-28T21:12:49.238Z,27.27
2019-02-28T21:15:17.821Z,28.30
2019-02-28T21:17:46.458Z,26.13
2019-02-28T21:20:17.211Z,28.87
2019-02-28T21:22:45.831Z,32.87
2019-02-28T21:25:18.508Z,34.70
2019-02-28T21:27:47.594Z,33.13
2019-02-28T21:30:26.405Z,32.73
2019-02-28T21:32:55.355Z,36.95
2019-02-28T21:35:25.793Z,39.87
2019-02-28T21:37:54.751Z,32.53
2019-02-28T21:40:24.048Z,37.10
2019-02-28T21:42:52.624Z,41.00
2019-02-28T21:45:24.614Z,40.70
2019-02-28T21:47:53.350Z,38.83
2019-02-28T21:50:22.004Z,39.15
2019-02-28T21:52:50.635Z,40.97
2019-02-28T21:55:19.287Z,43.00
2019-02-28T21:57:48.184Z,42.70
2019-02-28T22:00:25.214Z,37.70
2019-02-28T22:02:53.803Z,38.50
2019-02-28T22:05:22.487Z,39.07
2019-02-28T22:07:51.086Z,38.93
2019-02-28T22:10:19.805Z,33.57
2019-02-28T22:12:48.366Z,43.57
2019-02-28T22:15:21.083Z,41.00
2019-02-28T22:17:49.716Z,46.20
2019-02-28T22:20:18.416Z,38.20
2019-02-28T22:22:47.103Z,40.57
2019-02-28T22:25:17.563Z,40.33
2019-02-28T22:27:46.206Z,43.73
2019-02-28T22:30:23.514Z,38.57
2019-02-28T22:32:53.792Z,43.77
2019-02-28T22:35:24.030Z,43.60
2019-02-28T22:37:52.595Z,43.03
2019-02-28T22:40:21.155Z,41.47
2019-02-28T22:42:49.745Z,38.37
2019-02-28T22:45:18.324Z,42.20
2019-02-28T22:47:46.922Z,42.23
2019-02-28T22:50:15.856Z,37.73
2019-02-28T22:52:44.715Z,39.80
2019-02-28T22:55:13.358Z,42.47
2019-02-28T22:57:41.926Z,42.83
2019-02-28T23:00:30.431Z,36.63
2019-02-28T23:02:59.105Z,38.00
2019-02-28T23:05:27.670Z,42.27
2019-02-28T23:07:57.388Z,42.43
2019-02-28T23:10:26.051Z,44.80
2019-02-28T23:12:54.616Z,41.17
2019-02-28T23:15:23.217Z,41.03
2019-02-28T23:17:51.768Z,38.13
2019-02-28T23:20:20.630Z,41.07
2019-02-28T23:22:49.273Z,43.07
2019-02-28T23:25:17.847Z,41.10
2019-02-28T23:27:46.543Z,44.07
2019-02-28T23:30:30.083Z,47.10
2019-02-28T23:33:01.158Z,45.47
2019-02-28T23:35:32.387Z,43.77
2019-02-28T23:38:00.938Z,40.90
2019-02-28T23:40:29.541Z,42.83
2019-02-28T23:42:58.118Z,41.80
2019-02-28T23:45:26.714Z,44.50
2019-02-28T23:47:55.264Z,45.13
2019-02-28T23:50:23.838Z,43.00
2019-02-28T23:52:52.479Z,46.50
2019-02-28T23:55:21.067Z,46.47
2019-02-28T23:57:49.631Z,40.50
